Time;durP1;ratioP1;P1;durP2;ratioP2;P2;SDS_P1;SDS_P2;PMS_P1;PMS_P2;Temp;Humidity;BMP_temperature;BMP_pressure;BME280_temperature;BME280_humidity;BME280_pressure;Samples;Min_cycle;Max_cycle;Signal;HPM_P1;HPM_P2
2023/08/19 00:00:23;;;;;;;6.18;4.57;;;;;;;22.39;100.00;98340.41;4171137;28;20664;-48
2023/08/19 00:02:25;;;;;;;5.57;4.03;;;;;;;22.41;100.00;98344.50;4188246;28;20215;-49
2023/08/19 00:04:26;;;;;;;7.70;3.33;;;;;;;22.42;100.00;98346.19;4170791;28;20228;-50
2023/08/19 00:06:39;;;;;;;6.18;3.50;;;;;;;22.40;100.00;98358.78;4173708;28;20578;-48
2023/08/19 00:08:41;;;;;;;6.18;3.65;;;;;;;22.43;100.00;98355.38;4187334;28;20253;-48
2023/08/19 00:10:43;;;;;;;11.77;4.07;;;;;;;22.51;100.00;98348.97;4173067;28;20262;-48
2023/08/19 00:12:45;;;;;;;9.75;3.40;;;;;;;22.40;100.00;98350.41;4170438;28;20243;-49
2023/08/19 00:14:48;;;;;;;11.05;3.13;;;;;;;22.50;100.00;98342.53;4171872;28;20329;-48
2023/08/19 00:16:49;;;;;;;5.35;3.92;;;;;;;22.27;100.00;98340.25;4172324;28;20666;-48
2023/08/19 00:18:51;;;;;;;7.63;4.32;;;;;;;22.03;100.00;98339.97;4168224;28;20688;-48
2023/08/19 00:20:53;;;;;;;7.00;4.35;;;;;;;22.04;100.00;98333.25;4171209;28;20208;-48
2023/08/19 00:22:56;;;;;;;12.52;4.22;;;;;;;21.99;100.00;98347.34;4170852;28;20206;-49
2023/08/19 00:24:57;;;;;;;4.35;3.65;;;;;;;22.03;100.00;98343.56;4161757;28;20750;-48
2023/08/19 00:27:01;;;;;;;4.38;3.60;;;;;;;22.08;100.00;98339.78;4191734;28;20225;-49
2023/08/19 00:29:04;;;;;;;6.90;3.63;;;;;;;22.13;100.00;98342.41;4193540;28;20657;-49
2023/08/19 00:31:06;;;;;;;5.03;3.58;;;;;;;22.13;100.00;98342.41;4190216;28;20215;-48
2023/08/19 00:33:08;;;;;;;5.97;4.72;;;;;;;22.12;100.00;98338.78;4188782;28;20635;-48
2023/08/19 00:35:10;;;;;;;7.38;3.78;;;;;;;22.12;100.00;98337.97;4168597;28;20232;-48
2023/08/19 00:37:12;;;;;;;5.40;3.60;;;;;;;22.09;100.00;98335.84;4180890;28;20656;-48
2023/08/19 00:39:13;;;;;;;8.65;4.00;;;;;;;22.06;100.00;98336.50;4170929;28;20208;-48
2023/08/19 00:41:15;;;;;;;5.65;3.40;;;;;;;22.10;100.00;98334.72;4172344;28;20215;-49
2023/08/19 00:43:17;;;;;;;6.05;3.80;;;;;;;22.04;100.00;98339.63;4187472;28;20611;-52
2023/08/19 00:45:19;;;;;;;11.95;3.15;;;;;;;22.04;100.00;98339.63;4186715;28;20235;-48
2023/08/19 00:47:21;;;;;;;6.45;3.58;;;;;;;22.04;100.00;98333.25;4170348;28;20207;-48
2023/08/19 00:49:22;;;;;;;4.85;3.80;;;;;;;22.00;100.00;98348.97;4167975;28;20215;-49
2023/08/19 00:51:24;;;;;;;5.72;3.45;;;;;;;22.00;100.00;98332.25;4179171;28;20258;-48
2023/08/19 00:53:26;;;;;;;7.78;2.70;;;;;;;21.97;100.00;98344.88;4151836;28;20271;-50
2023/08/19 00:55:28;;;;;;;6.18;3.58;;;;;;;22.01;100.00;98345.03;4154276;28;20339;-51
2023/08/19 00:57:29;;;;;;;8.55;3.50;;;;;;;22.02;100.00;98335.50;4187087;28;20241;-48
2023/08/19 00:59:32;;;;;;;5.15;3.28;;;;;;;21.97;100.00;98339.28;4176133;28;20207;-51
2023/08/19 01:01:33;;;;;;;5.28;3.13;;;;;;;21.98;100.00;98342.91;4171881;28;20437;-48
2023/08/19 01:03:35;;;;;;;6.03;2.60;;;;;;;21.97;100.00;98349.63;4188150;28;20211;-48
2023/08/19 01:06:02;;;;;;;6.45;3.00;;;;;;;21.97;100.00;98356.00;4173128;28;20239;-48
2023/08/19 01:08:07;;;;;;;6.03;4.18;;;;;;;21.93;100.00;98345.84;4187005;28;20211;-49
2023/08/19 01:10:28;;;;;;;3.95;3.15;;;;;;;21.88;100.00;98340.44;4189377;28;20206;-50
2023/08/19 01:12:38;;;;;;;4.32;3.33;;;;;;;21.91;100.00;98350.94;4170718;28;20196;-55
2023/08/19 01:15:04;;;;;;;8.38;3.20;;;;;;;21.83;100.00;98348.97;4171464;28;20250;-48
2023/08/19 01:17:09;;;;;;;13.30;3.40;;;;;;;21.79;100.00;98348.81;4184231;28;20200;-53
2023/08/19 01:19:29;;;;;;;4.00;3.03;;;;;;;21.76;100.00;98348.63;4170535;28;20212;-49
2023/08/19 01:21:30;;;;;;;7.18;3.45;;;;;;;21.77;100.00;98344.72;4169594;28;20704;-50
2023/08/19 01:23:43;;;;;;;6.50;4.50;;;;;;;21.73;100.00;98343.72;4154886;28;20306;-49
2023/08/19 01:25:45;;;;;;;6.45;3.03;;;;;;;21.66;100.00;98337.78;4185879;28;20237;-49
2023/08/19 01:27:50;;;;;;;4.63;3.55;;;;;;;21.60;100.00;98333.50;4172670;28;20204;-50
2023/08/19 01:29:52;;;;;;;9.02;4.18;;;;;;;21.67;100.00;98333.88;4188771;28;20250;-50
2023/08/19 01:31:54;;;;;;;8.18;3.70;;;;;;;21.67;100.00;98322.72;4169395;28;20665;-49
2023/08/19 01:33:55;;;;;;;6.07;3.58;;;;;;;21.59;100.00;98326.28;4160342;28;20228;-49
2023/08/19 01:36:18;;;;;;;4.43;3.58;;;;;;;21.49;100.00;98337.72;4168831;28;20593;-51
2023/08/19 01:38:26;;;;;;;3.90;3.40;;;;;;;21.48;100.00;98336.09;4172389;28;20208;-48
2023/08/19 01:40:28;;;;;;;6.53;4.03;;;;;;;21.42;100.00;98338.22;4169634;28;20789;-49
2023/08/19 01:42:32;;;;;;;9.98;3.30;;;;;;;21.43;100.00;98339.84;4172921;28;20269;-48
2023/08/19 01:44:35;;;;;;;7.03;4.50;;;;;;;21.43;100.00;98347.41;4179446;28;20246;-48
2023/08/19 01:46:36;;;;;;;5.03;4.10;;;;;;;21.47;100.00;98340.03;4179223;28;20219;-48
2023/08/19 01:48:38;;;;;;;6.85;3.85;;;;;;;21.48;100.00;98338.88;4169143;28;20208;-49
2023/08/19 01:50:40;;;;;;;4.38;3.53;;;;;;;21.41;100.00;98335.75;4169699;28;20264;-48
2023/08/19 01:52:41;;;;;;;7.78;4.05;;;;;;;21.38;100.00;98344.78;4177655;28;20575;-48
2023/08/19 01:54:43;;;;;;;4.78;3.88;;;;;;;21.34;100.00;98343.75;4168905;28;20227;-48
2023/08/19 01:56:45;;;;;;;11.27;4.32;;;;;;;21.30;100.00;98340.00;4162644;28;20296;-47
2023/08/19 01:58:46;;;;;;;4.95;3.58;;;;;;;21.24;100.00;98335.72;4170576;28;20208;-48
2023/08/19 02:00:48;;;;;;;8.18;4.40;;;;;;;21.20;100.00;98334.72;4167460;28;20250;-50
2023/08/19 02:02:50;;;;;;;4.72;3.92;;;;;;;21.18;100.00;98339.81;4173194;28;20219;-47
2023/08/19 02:04:52;;;;;;;4.30;3.90;;;;;;;21.22;100.00;98343.56;4170443;28;20247;-47
2023/08/19 02:06:53;;;;;;;7.20;4.22;;;;;;;21.10;100.00;98344.19;4185676;28;20670;-47
2023/08/19 02:08:55;;;;;;;6.60;4.18;;;;;;;21.09;100.00;98344.50;4167787;28;20615;-47
2023/08/19 02:10:57;;;;;;;5.97;4.20;;;;;;;21.05;100.00;98347.09;4168185;28;20266;-49
2023/08/19 02:12:59;;;;;;;5.90;3.95;;;;;;;21.04;100.00;98348.25;4169185;28;20207;-47
2023/08/19 02:15:00;;;;;;;4.10;3.67;;;;;;;21.11;100.00;98347.81;4169799;28;20232;-47
2023/08/19 02:17:02;;;;;;;8.07;4.47;;;;;;;21.05;100.00;98351.88;4168534;28;20207;-49
2023/08/19 02:19:04;;;;;;;9.35;4.18;;;;;;;21.06;100.00;98345.16;4177636;28;20207;-47
2023/08/19 02:21:05;;;;;;;5.00;3.60;;;;;;;21.00;100.00;98354.78;4170183;28;20208;-47
2023/08/19 02:23:07;;;;;;;7.28;4.40;;;;;;;21.00;100.00;98352.00;4171782;28;20208;-51
2023/08/19 02:25:09;;;;;;;5.70;3.75;;;;;;;20.98;100.00;98343.16;4178385;28;20717;-48
2023/08/19 02:27:11;;;;;;;13.00;4.75;;;;;;;20.97;100.00;98349.88;4170334;28;20219;-46
2023/08/19 02:29:13;;;;;;;7.63;4.47;;;;;;;20.97;100.00;98358.22;4170432;28;20207;-47
2023/08/19 02:31:14;;;;;;;7.03;3.58;;;;;;;20.95;100.00;98349.34;4186430;28;20207;-47
2023/08/19 02:33:16;;;;;;;9.18;3.97;;;;;;;20.97;100.00;98355.44;4169584;28;20212;-49
2023/08/19 02:35:18;;;;;;;5.70;3.88;;;;;;;20.95;100.00;98355.75;4170540;28;20658;-47
2023/08/19 02:37:20;;;;;;;6.35;4.20;;;;;;;20.97;100.00;98358.22;4170920;28;20215;-47
2023/08/19 02:39:21;;;;;;;5.45;4.00;;;;;;;20.99;100.00;98351.16;4177424;28;20199;-47
2023/08/19 02:41:23;;;;;;;15.18;4.05;;;;;;;21.00;100.00;98352.00;4169122;28;20204;-47
2023/08/19 02:43:25;;;;;;;8.65;3.67;;;;;;;21.02;100.00;98355.28;4166266;28;20330;-47
2023/08/19 02:45:27;;;;;;;6.22;3.65;;;;;;;21.02;100.00;98349.72;4177755;28;20273;-47
2023/08/19 02:47:29;;;;;;;5.90;3.60;;;;;;;20.96;100.00;98343.47;4168732;28;20204;-48
2023/08/19 02:49:31;;;;;;;8.65;4.32;;;;;;;20.98;100.00;98348.72;4184818;28;20207;-47
2023/08/19 02:51:33;;;;;;;11.43;5.38;;;;;;;21.00;100.00;98346.44;4169085;28;20204;-48
2023/08/19 02:53:35;;;;;;;6.53;4.68;;;;;;;21.04;100.00;98347.44;4183871;28;20222;-48
2023/08/19 02:55:41;;;;;;;8.45;4.13;;;;;;;20.98;100.00;98354.28;4168522;28;20565;-51
2023/08/19 02:57:43;;;;;;;5.88;4.72;;;;;;;20.95;100.00;98343.78;4152546;28;20250;-49
2023/08/19 02:59:45;;;;;;;7.75;4.53;;;;;;;20.94;100.00;98354.13;4184775;28;20220;-48
2023/08/19 03:01:46;;;;;;;8.75;4.28;;;;;;;20.94;100.00;98353.28;4188738;28;20264;-47
2023/08/19 03:03:48;;;;;;;3.85;3.50;;;;;;;20.92;100.00;98347.22;4168762;28;20232;-48
2023/08/19 03:05:50;;;;;;;7.22;4.45;;;;;;;20.88;100.00;98349.00;4169676;28;20642;-48
2023/08/19 03:07:51;;;;;;;4.57;3.50;;;;;;;20.82;100.00;98356.66;4167945;28;20208;-50
2023/08/19 03:09:53;;;;;;;9.90;4.65;;;;;;;20.79;100.00;98350.91;4170237;28;20203;-48
2023/08/19 03:11:55;;;;;;;4.50;3.47;;;;;;;20.76;100.00;98351.53;4167086;28;20204;-47
2023/08/19 03:14:00;;;;;;;5.55;4.88;;;;;;;20.74;100.00;98349.09;4181566;28;20233;-47
2023/08/19 03:16:02;;;;;;;5.45;4.05;;;;;;;20.73;100.00;98352.19;4177317;28;20265;-47
2023/08/19 03:18:05;;;;;;;5.28;4.18;;;;;;;20.70;100.00;98367.53;4177796;28;20307;-47
2023/08/19 03:20:07;;;;;;;4.38;2.88;;;;;;;20.66;100.00;98368.50;4168284;28;20262;-47
2023/08/19 03:22:09;;;;;;;4.30;3.50;;;;;;;20.64;100.00;98368.81;4170996;28;20208;-47
2023/08/19 03:24:10;;;;;;;4.80;3.58;;;;;;;20.61;100.00;98365.84;4188725;28;20235;-48
2023/08/19 03:26:12;;;;;;;5.55;3.47;;;;;;;20.61;100.00;98365.84;4187532;28;20227;-47
2023/08/19 03:28:14;;;;;;;3.60;3.28;;;;;;;20.58;100.00;98374.84;4180782;28;20223;-47
2023/08/19 03:30:15;;;;;;;4.53;3.63;;;;;;;20.54;100.00;98365.47;4174115;28;20258;-48
2023/08/19 03:32:17;;;;;;;4.85;3.60;;;;;;;20.56;100.00;98368.75;4180276;28;20265;-50
2023/08/19 03:34:19;;;;;;;5.00;3.40;;;;;;;20.55;100.00;98362.38;4172239;28;20227;-50
2023/08/19 03:36:21;;;;;;;4.47;3.55;;;;;;;20.61;100.00;98365.84;4171391;28;20204;-48
2023/08/19 03:38:23;;;;;;;6.07;4.18;;;;;;;20.40;100.00;98364.72;4172752;28;20216;-52
2023/08/19 03:40:25;;;;;;;8.98;4.45;;;;;;;20.37;100.00;98355.06;4190738;28;20744;-49
2023/08/19 03:42:26;;;;;;;4.72;3.72;;;;;;;20.33;100.00;98350.47;4180197;28;20629;-47
2023/08/19 03:44:28;;;;;;;9.05;4.53;;;;;;;20.43;100.00;98361.31;4171626;28;20226;-48
2023/08/19 03:46:30;;;;;;;9.68;4.70;;;;;;;20.28;100.00;98350.59;4178890;28;20276;-48
2023/08/19 03:48:32;;;;;;;7.30;4.35;;;;;;;20.38;100.00;98362.25;4155273;28;20211;-48
2023/08/19 03:50:33;;;;;;;10.65;3.85;;;;;;;20.16;100.00;98348.38;4186285;28;20584;-50
2023/08/19 03:52:35;;;;;;;12.82;4.32;;;;;;;20.12;100.00;98354.91;4188549;28;20206;-49
2023/08/19 03:54:37;;;;;;;6.32;4.90;;;;;;;20.14;100.00;98355.38;4187630;28;20228;-48
2023/08/19 03:56:39;;;;;;;10.05;4.07;;;;;;;20.20;100.00;98360.53;4185305;28;20207;-48
2023/08/19 03:58:41;;;;;;;5.63;3.88;;;;;;;20.23;100.00;98354.31;4170713;28;20559;-47
2023/08/19 04:00:44;;;;;;;4.85;4.00;;;;;;;20.25;100.00;98357.59;4175514;28;20257;-47
2023/08/19 04:02:46;;;;;;;4.97;4.07;;;;;;;20.28;100.00;98356.97;4170715;28;20655;-49
2023/08/19 04:04:58;;;;;;;7.20;3.30;;;;;;;20.26;100.00;98358.44;4173806;28;20767;-51
2023/08/19 04:06:59;;;;;;;7.35;4.43;;;;;;;20.23;100.00;98354.31;4173148;28;20223;-47
2023/08/19 04:09:01;;;;;;;4.28;3.88;;;;;;;20.25;100.00;98351.22;4173265;28;20208;-47
2023/08/19 04:11:07;;;;;;;5.80;3.90;;;;;;;20.27;100.00;98351.72;4172198;28;20296;-49
2023/08/19 04:13:09;;;;;;;9.05;3.90;;;;;;;20.28;100.00;98358.94;4185027;28;20280;-48
2023/08/19 04:15:10;;;;;;;5.20;3.47;;;;;;;20.28;100.00;98358.94;4178820;28;20235;-51
2023/08/19 04:17:12;;;;;;;3.78;3.25;;;;;;;20.25;100.00;98359.56;4169879;28;20600;-51
2023/08/19 04:19:14;;;;;;;3.85;3.55;;;;;;;20.27;100.00;98357.28;4170148;28;20278;-48
2023/08/19 04:21:16;;;;;;;5.35;3.33;;;;;;;20.24;100.00;98366.28;4169750;28;20212;-47
2023/08/19 04:23:18;;;;;;;4.60;3.20;;;;;;;20.21;100.00;98366.88;4172394;28;20653;-47
2023/08/19 04:25:20;;;;;;;4.47;3.45;;;;;;;20.24;100.00;98369.06;4169721;28;20239;-49
2023/08/19 04:27:23;;;;;;;4.88;3.38;;;;;;;20.19;100.00;98371.94;4170535;28;20223;-48
2023/08/19 04:29:26;;;;;;;6.43;3.58;;;;;;;20.26;100.00;98375.09;4178474;28;20242;-48
2023/08/19 04:31:27;;;;;;;5.22;3.47;;;;;;;20.20;100.00;98379.97;4185937;28;20545;-49
2023/08/19 04:33:30;;;;;;;3.33;2.95;;;;;;;20.17;100.00;98377.00;4180581;28;20207;-50
2023/08/19 04:35:32;;;;;;;6.32;3.30;;;;;;;20.13;100.00;98378.75;4170633;28;20203;-48
2023/08/19 04:37:33;;;;;;;7.72;4.05;;;;;;;20.09;100.00;98374.97;4187710;28;20711;-49
2023/08/19 04:39:37;;;;;;;7.82;3.25;;;;;;;20.07;100.00;98377.25;4187072;28;20684;-50
2023/08/19 04:41:39;;;;;;;4.90;3.35;;;;;;;20.06;100.00;98381.16;4171831;28;20552;-49
2023/08/19 04:43:40;;;;;;;11.80;3.85;;;;;;;20.08;100.00;98376.09;4189507;28;20209;-47
2023/08/19 04:45:42;;;;;;;4.93;3.95;;;;;;;20.06;100.00;98370.84;4170948;28;20673;-48
2023/08/19 04:47:44;;;;;;;6.45;3.42;;;;;;;20.10;100.00;98368.28;4179550;28;20276;-49
2023/08/19 04:49:46;;;;;;;5.38;3.78;;;;;;;20.09;100.00;98375.78;4171089;28;20265;-50
2023/08/19 04:51:47;;;;;;;3.60;3.30;;;;;;;20.06;100.00;98372.81;4172936;28;20234;-48
2023/08/19 04:53:49;;;;;;;4.43;3.60;;;;;;;20.00;100.00;98368.50;4187725;28;20230;-47
2023/08/19 04:56:04;;;;;;;3.65;3.33;;;;;;;19.97;100.00;98371.91;4169852;28;20242;-48
2023/08/19 04:58:06;;;;;;;4.22;3.65;;;;;;;19.92;100.00;98374.81;4171362;28;20206;-48
2023/08/19 05:00:12;;;;;;;9.35;4.40;;;;;;;19.94;100.00;98372.53;4179416;28;20207;-48
2023/08/19 05:02:13;;;;;;;4.65;3.95;;;;;;;20.00;100.00;98372.09;4169151;28;20212;-47
2023/08/19 05:04:15;;;;;;;6.20;4.95;;;;;;;19.97;100.00;98377.47;4171048;28;20568;-48
2023/08/19 05:06:17;;;;;;;8.68;4.65;;;;;;;19.96;100.00;98373.03;4183466;28;20600;-49
2023/08/19 05:08:19;;;;;;;5.35;3.83;;;;;;;19.98;100.00;98381.88;4168141;28;20208;-49
2023/08/19 05:10:20;;;;;;;5.93;3.50;;;;;;;20.04;100.00;98380.63;4174150;28;20643;-48
2023/08/19 05:12:23;;;;;;;6.78;4.53;;;;;;;20.09;100.00;98380.50;4186226;28;20568;-48
2023/08/19 05:14:25;;;;;;;4.68;3.03;;;;;;;20.12;100.00;98391.03;4170441;28;20654;-48
2023/08/19 05:16:27;;;;;;;4.03;3.72;;;;;;;20.13;100.00;98392.66;4171231;28;20211;-47
2023/08/19 05:18:29;;;;;;;3.30;3.00;;;;;;;20.16;100.00;98390.06;4185017;28;20229;-47
2023/08/19 05:20:31;;;;;;;5.72;4.18;;;;;;;20.23;100.00;98392.41;4168308;28;20203;-50
2023/08/19 05:22:32;;;;;;;9.30;3.22;;;;;;;20.24;100.00;98399.63;4168483;28;20212;-48
2023/08/19 05:24:34;;;;;;;5.60;4.35;;;;;;;20.37;100.00;98398.75;4178755;28;20265;-48
2023/08/19 05:26:36;;;;;;;4.13;3.45;;;;;;;20.33;100.00;98392.16;4168449;28;20223;-50
2023/08/19 05:28:38;;;;;;;5.00;3.75;;;;;;;20.34;100.00;98399.34;4171001;28;20307;-48
2023/08/19 05:30:40;;;;;;;5.03;4.40;;;;;;;20.39;100.00;98402.03;4182648;28;20618;-50
2023/08/19 05:32:41;;;;;;;8.00;4.03;;;;;;;20.45;100.00;98409.09;4171277;28;20204;-49
2023/08/19 05:34:43;;;;;;;8.35;3.75;;;;;;;20.54;100.00;98418.31;4167705;28;20727;-47
2023/08/19 05:36:45;;;;;;;5.15;3.15;;;;;;;20.65;100.00;98428.84;4168923;28;20255;-47
2023/08/19 05:38:47;;;;;;;6.03;3.55;;;;;;;20.72;100.00;98428.41;4186571;28;20203;-48
2023/08/19 05:40:49;;;;;;;5.60;5.03;;;;;;;20.76;100.00;98429.41;4173256;28;20211;-47
2023/08/19 05:42:50;;;;;;;11.82;4.78;;;;;;;20.82;100.00;98433.69;4177510;28;20203;-48
2023/08/19 05:44:54;;;;;;;5.18;3.83;;;;;;;20.75;100.00;98425.00;4168164;28;20231;-50
2023/08/19 05:46:56;;;;;;;11.02;5.07;;;;;;;20.71;100.00;98422.03;4168273;28;20241;-50
2023/08/19 05:48:58;;;;;;;5.00;4.60;;;;;;;20.73;100.00;98425.31;4190471;28;20205;-48
2023/08/19 05:51:01;;;;;;;5.85;4.60;;;;;;;20.98;100.00;98430.22;4168298;28;20208;-48
2023/08/19 05:53:02;;;;;;;5.75;4.15;;;;;;;20.97;100.00;98430.56;4167857;28;20216;-48
2023/08/19 05:55:05;;;;;;;5.95;5.35;;;;;;;21.15;100.00;98421.97;4172304;28;20235;-47
2023/08/19 05:57:06;;;;;;;6.47;4.32;;;;;;;21.45;100.00;98425.88;4171196;28;20788;-48
2023/08/19 05:59:08;;;;;;;5.72;5.28;;;;;;;21.27;100.00;98430.56;4184936;28;20208;-48
2023/08/19 06:01:10;;;;;;;11.05;5.28;;;;;;;21.46;100.00;98433.06;4170964;28;20212;-48
2023/08/19 06:03:12;;;;;;;5.32;4.47;;;;;;;21.86;100.00;98431.91;4170494;28;20208;-47
2023/08/19 06:05:14;;;;;;;5.40;4.32;;;;;;;22.05;100.00;98440.78;4188404;28;20227;-48
2023/08/19 06:07:21;;;;;;;7.30;4.28;;;;;;;22.05;100.00;98443.59;4171751;28;20235;-50
2023/08/19 06:09:22;;;;;;;6.85;5.25;;;;;;;21.91;100.00;98440.91;4160551;28;20204;-50
2023/08/19 06:11:24;;;;;;;14.30;5.60;;;;;;;21.74;100.00;98435.34;4170946;28;20550;-49
2023/08/19 06:13:26;;;;;;;7.00;5.45;;;;;;;21.75;100.00;98436.13;4177039;28;20257;-48
2023/08/19 06:15:28;;;;;;;7.13;6.18;;;;;;;21.56;100.00;98429.97;4167885;28;20214;-50
2023/08/19 06:17:31;;;;;;;8.85;7.25;;;;;;;21.47;100.00;98435.53;4175556;28;20234;-49
2023/08/19 06:19:33;;;;;;;13.40;5.38;;;;;;;21.53;100.00;98441.78;4186261;28;20262;-48
2023/08/19 06:21:35;;;;;;;7.97;5.65;;;;;;;21.53;100.00;98439.00;4169868;28;20623;-48
2023/08/19 06:23:38;;;;;;;7.78;5.60;;;;;;;21.70;100.00;98441.88;4170804;28;20269;-48
2023/08/19 06:25:39;;;;;;;6.32;5.00;;;;;;;21.76;100.00;98454.47;4171623;28;20254;-48
2023/08/19 06:27:41;;;;;;;8.02;5.18;;;;;;;22.13;100.00;98453.91;4169064;28;20343;-48
2023/08/19 06:29:43;;;;;;;8.07;4.72;;;;;;;22.28;100.00;98456.22;4164541;28;20196;-49
2023/08/19 06:31:45;;;;;;;6.25;4.75;;;;;;;22.42;100.00;98457.75;4176469;28;20199;-51
2023/08/19 06:33:47;;;;;;;6.53;4.03;;;;;;;22.51;100.00;98466.91;4167338;28;20220;-48
2023/08/19 06:35:49;;;;;;;5.57;3.58;;;;;;;22.68;100.00;98472.50;4166790;28;20204;-49
2023/08/19 06:37:53;;;;;;;6.25;4.72;;;;;;;22.90;100.00;98469.50;4175185;28;20211;-47
2023/08/19 06:39:58;;;;;;;7.68;5.38;;;;;;;23.28;100.00;98475.19;4175934;28;20587;-48
2023/08/19 06:42:02;;;;;;;5.38;4.10;;;;;;;23.54;100.00;98478.72;4167116;28;20257;-49
2023/08/19 06:44:06;;;;;;;5.32;4.40;;;;;;;23.67;100.00;98477.69;4176433;28;20599;-48
2023/08/19 06:46:08;;;;;;;8.25;3.28;;;;;;;24.22;100.00;98485.63;4169494;28;20239;-49
2023/08/19 06:48:11;;;;;;;4.38;3.45;;;;;;;24.53;97.63;98480.44;4184175;28;20227;-48
2023/08/19 06:50:14;;;;;;;7.20;3.67;;;;;;;24.55;97.19;98478.16;4169472;28;20208;-48
2023/08/19 06:52:15;;;;;;;8.45;3.53;;;;;;;24.71;97.30;98476.38;4168741;28;20609;-50
2023/08/19 06:54:18;;;;;;;5.97;4.05;;;;;;;24.44;93.08;98481.66;4176323;28;20230;-48
2023/08/19 06:56:33;;;;;;;5.90;3.38;;;;;;;24.37;94.77;98482.22;4170955;28;20227;-52
2023/08/19 06:58:40;;;;;;;4.22;3.35;;;;;;;24.10;95.10;98488.34;4172925;28;20199;-47
2023/08/19 07:00:43;;;;;;;4.53;3.35;;;;;;;23.79;98.80;98490.63;4181219;28;20200;-51
2023/08/19 07:02:45;;;;;;;13.20;3.60;;;;;;;23.84;97.48;98490.44;4170577;28;20208;-49
2023/08/19 07:04:48;;;;;;;5.35;3.28;;;;;;;23.33;99.71;98487.03;4158350;28;20228;-48
2023/08/19 07:06:51;;;;;;;13.93;3.60;;;;;;;23.30;99.74;98489.69;4179687;28;20285;-48
2023/08/19 07:08:53;;;;;;;3.65;3.30;;;;;;;23.30;100.00;98484.88;4172104;28;20200;-48
2023/08/19 07:10:55;;;;;;;5.90;3.85;;;;;;;23.28;100.00;98486.38;4159561;28;20208;-47
2023/08/19 07:12:58;;;;;;;4.20;3.70;;;;;;;23.41;100.00;98486.19;4181117;28;20696;-48
2023/08/19 07:15:00;;;;;;;4.78;3.92;;;;;;;23.41;100.00;98491.78;4173687;28;20323;-48
2023/08/19 07:17:04;;;;;;;4.15;3.25;;;;;;;23.52;100.00;98492.22;4173131;28;20208;-47
2023/08/19 07:19:10;;;;;;;3.75;3.42;;;;;;;23.59;100.00;98492.53;4192313;28;20213;-47
2023/08/19 07:21:13;;;;;;;8.63;3.15;;;;;;;23.60;100.00;98499.75;4172352;28;20724;-54
2023/08/19 07:23:15;;;;;;;9.25;3.88;;;;;;;23.59;100.00;98503.69;4173553;28;20204;-47
2023/08/19 07:25:17;;;;;;;5.13;3.55;;;;;;;23.64;100.00;98495.13;4158183;28;20283;-50
2023/08/19 07:27:20;;;;;;;4.32;3.05;;;;;;;23.54;100.00;98496.31;4160732;28;20236;-48
2023/08/19 07:29:22;;;;;;;4.30;2.65;;;;;;;23.55;100.00;98505.50;4186215;28;20215;-47
2023/08/19 07:31:24;;;;;;;6.32;3.15;;;;;;;23.62;99.97;98503.00;4172262;28;20212;-48
2023/08/19 07:33:26;;;;;;;9.68;2.83;;;;;;;23.60;99.73;98499.75;4180623;28;20607;-49
2023/08/19 07:35:27;;;;;;;11.02;4.60;;;;;;;23.61;100.00;98499.41;4171111;28;20200;-49
2023/08/19 07:37:29;;;;;;;4.40;2.65;;;;;;;23.63;100.00;98499.09;4179285;28;20207;-51
2023/08/19 07:39:32;;;;;;;8.52;3.20;;;;;;;23.67;99.82;98507.25;4173083;28;20230;-48
2023/08/19 07:41:34;;;;;;;3.38;2.97;;;;;;;23.73;100.00;98504.28;4169583;28;20212;-48
2023/08/19 07:43:36;;;;;;;4.32;3.42;;;;;;;23.61;100.00;98507.81;4170315;28;20211;-47
2023/08/19 07:45:37;;;;;;;7.93;3.30;;;;;;;23.76;100.00;98510.03;4189889;28;20207;-47
2023/08/19 07:47:39;;;;;;;3.20;2.70;;;;;;;23.64;99.73;98506.31;4155509;28;20316;-47
2023/08/19 07:49:41;;;;;;;3.55;3.05;;;;;;;23.65;99.18;98513.53;4179821;28;20296;-47
2023/08/19 07:51:42;;;;;;;9.38;3.03;;;;;;;23.62;98.38;98508.59;4171606;28;20573;-48
2023/08/19 07:53:44;;;;;;;4.45;3.30;;;;;;;23.79;98.90;98515.78;4188212;28;20672;-49
2023/08/19 07:55:47;;;;;;;13.52;2.88;;;;;;;23.85;100.00;98514.44;4176720;28;20326;-52
2023/08/19 07:57:49;;;;;;;7.82;3.22;;;;;;;23.86;96.95;98509.66;4173193;28;20436;-47
2023/08/19 07:59:51;;;;;;;10.50;3.00;;;;;;;23.94;97.51;98509.63;4171873;28;20200;-49
2023/08/19 08:01:54;;;;;;;2.75;2.53;;;;;;;24.07;97.81;98516.97;4170790;28;20698;-50
2023/08/19 08:03:57;;;;;;;8.35;2.45;;;;;;;24.11;98.62;98509.56;4169783;28;20672;-47
2023/08/19 08:05:59;;;;;;;7.43;3.33;;;;;;;24.15;97.79;98513.31;4172743;28;20294;-48
2023/08/19 08:08:01;;;;;;;4.38;3.28;;;;;;;24.21;98.04;98517.53;4179323;28;20302;-50
2023/08/19 08:10:03;;;;;;;4.05;2.97;;;;;;;24.27;98.10;98512.59;4186173;28;20207;-52
2023/08/19 08:12:05;;;;;;;3.20;2.80;;;;;;;24.24;99.42;98522.47;4175838;28;20273;-48
2023/08/19 08:14:07;;;;;;;6.03;3.03;;;;;;;24.39;99.13;98513.47;4171705;28;20246;-48
2023/08/19 08:16:09;;;;;;;7.90;3.33;;;;;;;24.49;98.54;98517.84;4154866;28;20286;-49
2023/08/19 08:18:11;;;;;;;5.07;2.60;;;;;;;24.55;97.23;98517.34;4168895;28;20199;-47
2023/08/19 08:20:13;;;;;;;4.07;2.80;;;;;;;24.60;96.61;98519.13;4171168;28;20208;-50
2023/08/19 08:22:15;;;;;;;5.28;2.58;;;;;;;24.68;95.40;98524.66;4172324;28;20748;-49
2023/08/19 08:24:17;;;;;;;8.30;3.38;;;;;;;24.72;94.19;98517.22;4168922;28;20224;-48
2023/08/19 08:26:19;;;;;;;6.57;2.83;;;;;;;24.74;93.30;98509.28;4171577;28;20215;-48
2023/08/19 08:28:21;;;;;;;4.18;3.05;;;;;;;24.83;93.00;98506.41;4170164;28;20591;-49
2023/08/19 08:30:23;;;;;;;6.47;2.50;;;;;;;24.56;91.95;98502.19;4170976;28;20201;-48
2023/08/19 08:32:24;;;;;;;4.13;2.90;;;;;;;24.50;94.49;98503.53;4188115;28;20210;-47
2023/08/19 08:34:26;;;;;;;5.45;3.38;;;;;;;24.67;93.59;98509.00;4179253;28;20245;-48
2023/08/19 08:36:28;;;;;;;6.10;3.75;;;;;;;24.84;94.29;98514.47;4162988;28;20204;-48
2023/08/19 08:38:30;;;;;;;5.15;2.92;;;;;;;24.96;94.33;98514.53;4172027;28;20208;-47
2023/08/19 08:40:31;;;;;;;7.45;3.47;;;;;;;24.95;92.66;98524.09;4172936;28;20671;-49
2023/08/19 08:42:33;;;;;;;6.38;3.65;;;;;;;24.83;95.91;98524.03;4179389;28;20215;-47
2023/08/19 08:44:37;;;;;;;7.65;4.00;;;;;;;25.13;94.12;98522.75;4169808;28;20259;-49
2023/08/19 08:46:39;;;;;;;6.45;3.63;;;;;;;25.40;91.77;98515.78;4178748;28;20250;-48
2023/08/19 08:48:42;;;;;;;7.95;5.47;;;;;;;25.44;89.61;98511.09;4167774;28;20227;-48
2023/08/19 08:50:44;;;;;;;7.18;3.15;;;;;;;25.37;90.32;98508.88;4170117;28;20203;-48
2023/08/19 08:52:46;;;;;;;7.32;2.97;;;;;;;25.50;90.74;98516.16;4172891;28;20208;-47
2023/08/19 08:54:54;;;;;;;7.35;3.53;;;;;;;25.30;91.08;98510.59;4166558;28;20787;-47
2023/08/19 08:56:55;;;;;;;3.63;3.33;;;;;;;25.36;92.38;98512.84;4186916;28;20202;-48
2023/08/19 08:58:58;;;;;;;6.15;4.25;;;;;;;25.18;93.57;98514.16;4169407;28;20203;-49
2023/08/19 09:01:02;;;;;;;5.57;3.17;;;;;;;25.31;93.49;98513.06;4168749;28;20713;-47
2023/08/19 09:03:05;;;;;;;7.45;3.95;;;;;;;25.27;92.94;98511.28;4169089;28;20212;-48
2023/08/19 09:05:07;;;;;;;4.57;4.00;;;;;;;25.34;94.02;98522.75;4179443;28;20231;-50
2023/08/19 09:07:13;;;;;;;8.90;4.05;;;;;;;25.27;92.72;98517.69;4157455;28;20208;-50
2023/08/19 09:09:15;;;;;;;4.35;3.97;;;;;;;25.50;92.58;98516.16;4174671;28;20211;-49
2023/08/19 09:11:21;;;;;;;5.22;4.50;;;;;;;25.38;92.58;98521.72;4156266;28;20200;-47
2023/08/19 09:13:24;;;;;;;5.10;3.33;;;;;;;25.39;90.21;98530.97;4170505;28;20204;-47
2023/08/19 09:15:29;;;;;;;3.85;3.55;;;;;;;25.32;91.22;98534.31;4153221;28;20226;-50
2023/08/19 09:17:32;;;;;;;5.00;3.70;;;;;;;25.49;91.55;98536.94;4167612;28;20239;-47
2023/08/19 09:19:35;;;;;;;9.32;3.97;;;;;;;25.49;90.59;98531.34;4168358;28;20247;-48
2023/08/19 09:21:37;;;;;;;8.18;3.10;;;;;;;25.42;90.10;98525.47;4170782;28;20634;-47
2023/08/19 09:23:40;;;;;;;5.38;3.63;;;;;;;25.54;89.99;98542.31;4161119;28;20223;-47
2023/08/19 09:25:41;;;;;;;6.30;3.78;;;;;;;25.51;89.44;98540.22;4169786;28;20560;-47
2023/08/19 09:27:44;;;;;;;4.07;3.67;;;;;;;25.58;90.39;98550.88;4168447;28;20235;-49
2023/08/19 09:29:52;;;;;;;5.32;3.80;;;;;;;25.63;92.48;98545.84;4168834;28;20204;-47
2023/08/19 09:31:57;;;;;;;5.78;4.15;;;;;;;25.68;91.66;98551.25;4169592;28;20204;-47